Time;durP1;ratioP1;P1;durP2;ratioP2;P2;SDS_P1;SDS_P2;PMS_P1;PMS_P2;Temp;Humidity;BMP_temperature;BMP_pressure;BME280_temperature;BME280_humidity;BME280_pressure;Samples;Min_cycle;Max_cycle;Signal;HPM_P1;HPM_P2
2022/05/17 00:01:44;;;;;;;17.98;12.65;;;16.70;99.90;;;;;;5090734;28;20048;-75
2022/05/17 00:04:11;;;;;;;20.80;12.70;;;16.60;99.90;;;;;;5090651;28;20403;-74
2022/05/17 00:06:36;;;;;;;17.73;12.38;;;16.60;99.90;;;;;;5093041;28;20047;-75
2022/05/17 00:09:02;;;;;;;16.27;11.52;;;16.60;99.90;;;;;;5094958;28;20043;-75
2022/05/17 00:11:28;;;;;;;17.10;12.30;;;16.50;99.90;;;;;;5105867;28;20495;-74
2022/05/17 00:13:54;;;;;;;18.15;12.23;;;16.50;99.90;;;;;;5108215;28;20069;-75
2022/05/17 00:16:19;;;;;;;18.42;12.57;;;16.50;99.90;;;;;;5108165;28;20471;-75
2022/05/17 00:18:45;;;;;;;18.60;12.57;;;16.50;99.90;;;;;;5087889;28;20040;-75
2022/05/17 00:21:11;;;;;;;18.80;12.38;;;16.40;99.90;;;;;;5099253;28;20048;-74
2022/05/17 00:23:37;;;;;;;21.50;12.63;;;16.30;99.90;;;;;;5095603;28;20214;-74
2022/05/17 00:26:04;;;;;;;18.00;12.63;;;16.30;99.90;;;;;;5093159;28;20036;-75
2022/05/17 00:28:29;;;;;;;16.58;12.05;;;16.30;99.90;;;;;;5103309;28;20044;-75
2022/05/17 00:30:55;;;;;;;19.85;12.50;;;16.30;99.90;;;;;;5101690;28;20042;-75
2022/05/17 00:33:21;;;;;;;20.40;12.45;;;16.20;99.90;;;;;;5103490;28;20043;-75
2022/05/17 00:35:48;;;;;;;17.70;12.43;;;16.20;99.90;;;;;;5093996;28;20055;-74
2022/05/17 00:38:15;;;;;;;19.30;12.52;;;16.20;99.90;;;;;;5096527;28;20036;-75
2022/05/17 00:40:41;;;;;;;18.33;12.30;;;16.20;99.90;;;;;;5105924;28;20044;-75
2022/05/17 00:43:08;;;;;;;22.90;13.55;;;16.20;99.90;;;;;;5105064;28;20428;-75
2022/05/17 00:45:35;;;;;;;16.38;12.40;;;16.10;99.90;;;;;;5110549;28;20073;-75
2022/05/17 00:48:04;;;;;;;21.33;12.57;;;16.10;99.90;;;;;;5110513;28;20082;-75
2022/05/17 00:50:40;;;;;;;19.25;13.38;;;16.00;99.90;;;;;;5099782;28;20606;-74
2022/05/17 00:53:11;;;;;;;20.05;12.82;;;16.00;99.90;;;;;;5103172;28;20052;-75
2022/05/17 00:55:44;;;;;;;17.38;11.75;;;16.00;99.90;;;;;;5107300;28;20139;-74
2022/05/17 00:58:19;;;;;;;17.35;12.18;;;16.00;99.90;;;;;;5099204;28;20498;-75
2022/05/17 01:00:50;;;;;;;19.83;11.68;;;16.00;99.90;;;;;;5087784;28;20058;-74
2022/05/17 01:03:19;;;;;;;17.88;11.52;;;16.00;99.90;;;;;;5087620;28;20394;-76
2022/05/17 01:05:50;;;;;;;17.77;11.63;;;16.00;99.90;;;;;;5088833;28;20044;-74
2022/05/17 01:08:18;;;;;;;20.20;11.43;;;16.00;99.90;;;;;;5087394;28;20048;-75
2022/05/17 01:10:44;;;;;;;17.63;10.98;;;16.00;99.90;;;;;;5096570;28;20044;-75
2022/05/17 01:15:54;;;;;;;21.08;11.23;;;15.90;99.90;;;;;;5099050;28;20040;-75
2022/05/17 01:18:20;;;;;;;17.30;11.00;;;15.90;99.90;;;;;;5087814;28;20105;-74
2022/05/17 01:20:46;;;;;;;20.30;11.50;;;15.90;99.90;;;;;;5098226;28;20077;-74
2022/05/17 01:23:12;;;;;;;17.25;10.90;;;15.90;99.90;;;;;;5096825;28;20036;-74
2022/05/17 01:25:40;;;;;;;20.60;11.52;;;15.80;99.90;;;;;;5089829;28;20044;-75
2022/05/17 01:28:24;;;;;;;18.00;11.10;;;15.80;99.90;;;;;;5100606;28;20048;-75
2022/05/17 01:30:50;;;;;;;18.00;10.80;;;15.90;99.90;;;;;;5095271;28;20043;-75
2022/05/17 01:33:19;;;;;;;19.60;11.98;;;15.80;99.90;;;;;;5094033;28;20105;-75
2022/05/17 01:35:45;;;;;;;20.55;11.95;;;15.80;99.90;;;;;;5109959;28;20048;-74
2022/05/17 01:38:12;;;;;;;21.88;11.88;;;15.70;99.90;;;;;;5101378;28;20055;-74
2022/05/17 01:40:39;;;;;;;18.07;11.63;;;15.70;99.90;;;;;;5088985;28;20057;-75
2022/05/17 01:43:06;;;;;;;16.65;12.25;;;15.70;99.90;;;;;;5107185;28;20094;-75
2022/05/17 01:45:34;;;;;;;20.80;12.03;;;15.70;99.90;;;;;;5105253;28;20092;-75
2022/05/17 01:48:00;;;;;;;18.02;10.75;;;15.70;99.90;;;;;;5103263;28;20392;-74
2022/05/17 01:50:26;;;;;;;18.52;11.70;;;15.70;99.90;;;;;;5091819;28;20031;-74
2022/05/17 01:52:51;;;;;;;18.38;11.10;;;15.60;99.90;;;;;;5088459;28;20052;-74
2022/05/17 01:55:17;;;;;;;18.83;12.05;;;15.60;99.90;;;;;;5099309;28;20532;-75
2022/05/17 01:57:43;;;;;;;18.73;11.80;;;15.60;99.90;;;;;;5106495;28;20123;-74
2022/05/17 02:00:13;;;;;;;20.02;12.65;;;15.60;99.90;;;;;;5095206;28;20048;-75
2022/05/17 02:02:38;;;;;;;19.77;11.98;;;15.60;99.90;;;;;;5104347;28;20164;-74
2022/05/17 02:05:06;;;;;;;22.58;13.45;;;15.60;99.90;;;;;;5100294;28;20127;-75
2022/05/17 02:07:32;;;;;;;23.67;12.73;;;15.60;99.90;;;;;;5080602;28;20040;-74
2022/05/17 02:09:57;;;;;;;17.98;12.75;;;15.50;99.90;;;;;;5089093;28;20048;-75
2022/05/17 02:12:23;;;;;;;21.83;12.77;;;15.60;99.90;;;;;;5087411;28;20044;-75
2022/05/17 02:14:48;;;;;;;20.70;12.60;;;15.50;99.90;;;;;;5095467;28;20406;-75
2022/05/17 02:17:14;;;;;;;18.60;11.70;;;15.50;99.90;;;;;;5107948;28;20044;-75
2022/05/17 02:19:40;;;;;;;16.63;12.45;;;15.50;99.90;;;;;;5101207;28;20058;-74
2022/05/17 02:22:06;;;;;;;21.00;11.65;;;15.50;99.90;;;;;;5104770;28;20043;-74
2022/05/17 02:24:32;;;;;;;21.80;12.45;;;15.40;99.90;;;;;;5103891;28;20047;-74
2022/05/17 02:26:58;;;;;;;20.73;12.23;;;15.50;99.90;;;;;;5091619;28;20707;-75
2022/05/17 02:29:25;;;;;;;17.50;11.02;;;15.40;99.90;;;;;;5101880;28;20534;-75
2022/05/17 02:31:51;;;;;;;18.83;11.75;;;15.40;99.90;;;;;;5098391;28;20470;-74
2022/05/17 02:34:18;;;;;;;20.40;11.43;;;15.30;99.90;;;;;;5105969;28;20096;-75
2022/05/17 02:36:44;;;;;;;18.13;12.02;;;15.30;99.90;;;;;;5095847;28;20119;-74
2022/05/17 02:39:11;;;;;;;18.88;11.32;;;15.30;99.90;;;;;;5111484;28;20047;-74
2022/05/17 02:41:36;;;;;;;20.63;12.68;;;15.30;99.90;;;;;;5104406;28;20047;-74
2022/05/17 02:44:02;;;;;;;18.63;11.88;;;15.30;99.90;;;;;;5092386;28;20044;-74
2022/05/17 02:46:30;;;;;;;17.50;11.38;;;15.20;99.90;;;;;;5094266;28;20048;-75
2022/05/17 02:48:55;;;;;;;15.80;11.25;;;15.20;99.90;;;;;;5091706;28;20059;-75
2022/05/17 02:51:21;;;;;;;17.20;11.48;;;15.20;99.90;;;;;;5090017;28;20040;-75
2022/05/17 02:53:47;;;;;;;18.98;11.80;;;15.20;99.90;;;;;;5090846;28;20143;-74
2022/05/17 02:56:14;;;;;;;18.35;11.52;;;15.20;99.90;;;;;;5101014;28;20043;-74
2022/05/17 02:58:40;;;;;;;16.73;11.15;;;15.20;99.90;;;;;;5110702;28;21808;-75
2022/05/17 03:01:07;;;;;;;17.83;11.75;;;15.10;99.90;;;;;;5102293;28;20051;-75
2022/05/17 03:03:35;;;;;;;19.08;11.55;;;15.10;99.90;;;;;;5093197;28;20570;-75
2022/05/17 03:06:01;;;;;;;19.92;10.80;;;15.10;99.90;;;;;;5088952;28;20501;-75
2022/05/17 03:08:26;;;;;;;16.85;11.02;;;15.10;99.90;;;;;;5092310;28;20044;-75
2022/05/17 03:10:52;;;;;;;17.70;11.15;;;15.00;99.90;;;;;;5090505;28;20388;-75
2022/05/17 03:13:19;;;;;;;18.35;10.98;;;15.00;99.90;;;;;;5089946;28;20131;-75
2022/05/17 03:15:45;;;;;;;17.45;11.15;;;15.00;99.90;;;;;;5082158;28;20531;-75
2022/05/17 03:18:10;;;;;;;21.33;11.75;;;15.00;99.90;;;;;;5090059;28;20043;-75
2022/05/17 03:20:36;;;;;;;16.35;11.18;;;15.00;99.90;;;;;;5091158;28;20040;-74
2022/05/17 03:23:01;;;;;;;19.60;11.50;;;14.90;99.90;;;;;;5092359;28;20134;-75
2022/05/17 03:25:27;;;;;;;20.50;11.45;;;14.90;99.90;;;;;;5092459;28;20046;-75
2022/05/17 03:27:54;;;;;;;22.25;11.05;;;14.90;99.90;;;;;;5108379;28;20127;-75
2022/05/17 03:30:20;;;;;;;21.70;12.03;;;14.90;99.90;;;;;;5106678;28;20035;-75
2022/05/17 03:32:46;;;;;;;16.85;11.02;;;14.90;99.90;;;;;;5108575;28;20040;-75
2022/05/17 03:35:14;;;;;;;22.45;11.13;;;14.90;99.90;;;;;;5102676;28;20479;-75
2022/05/17 03:37:40;;;;;;;21.15;11.65;;;14.80;99.90;;;;;;5108878;28;20067;-75
2022/05/17 03:40:09;;;;;;;23.27;12.23;;;14.80;99.90;;;;;;5108607;28;20487;-75
2022/05/17 03:42:35;;;;;;;17.13;11.05;;;14.80;99.90;;;;;;5100362;28;20071;-75
2022/05/17 03:45:02;;;;;;;20.40;11.00;;;14.80;99.90;;;;;;5090534;28;20072;-76
2022/05/17 03:47:27;;;;;;;16.27;10.80;;;14.80;99.90;;;;;;5111613;28;20427;-75
2022/05/17 03:49:53;;;;;;;19.58;11.27;;;14.80;99.90;;;;;;5111755;28;20135;-75
2022/05/17 03:52:23;;;;;;;21.17;10.80;;;14.80;99.90;;;;;;5108180;28;20063;-75
2022/05/17 03:54:53;;;;;;;18.23;11.27;;;14.80;99.90;;;;;;5109091;28;20051;-75
2022/05/17 03:57:19;;;;;;;20.17;10.85;;;14.80;99.90;;;;;;5111244;28;20040;-76
2022/05/17 03:59:44;;;;;;;18.25;10.70;;;14.80;99.90;;;;;;5108565;28;20051;-75
2022/05/17 04:02:10;;;;;;;21.25;11.60;;;14.70;99.90;;;;;;5103807;28;20063;-76
2022/05/17 04:04:36;;;;;;;19.73;11.25;;;14.70;99.90;;;;;;5092948;28;20086;-76
2022/05/17 04:07:01;;;;;;;20.42;11.55;;;14.70;99.90;;;;;;5090273;28;20223;-75
2022/05/17 04:09:27;;;;;;;18.85;11.52;;;14.70;99.90;;;;;;5090986;28;20040;-75
2022/05/17 04:11:52;;;;;;;16.80;10.55;;;14.70;99.90;;;;;;5089242;28;20040;-75
2022/05/17 04:14:18;;;;;;;17.23;10.35;;;14.80;99.90;;;;;;5084173;28;20061;-75
2022/05/17 04:16:43;;;;;;;21.55;11.45;;;14.80;99.90;;;;;;5092529;28;20063;-75
2022/05/17 04:19:12;;;;;;;21.23;12.35;;;14.80;99.90;;;;;;5093176;28;20447;-75
2022/05/17 04:21:37;;;;;;;24.15;11.48;;;14.80;99.90;;;;;;5110371;28;20097;-75
2022/05/17 04:24:03;;;;;;;18.67;10.98;;;14.80;99.90;;;;;;5101667;28;20035;-75
2022/05/17 04:26:32;;;;;;;20.25;11.50;;;14.90;99.90;;;;;;5088652;28;20051;-75
2022/05/17 04:28:58;;;;;;;20.10;11.52;;;14.90;99.90;;;;;;5097700;28;20040;-76
2022/05/17 04:31:24;;;;;;;19.85;11.23;;;15.00;99.90;;;;;;5107953;28;20119;-75
2022/05/17 04:33:50;;;;;;;17.65;10.55;;;15.00;99.90;;;;;;5102502;28;20038;-75
2022/05/17 04:36:16;;;;;;;19.27;11.65;;;15.00;99.90;;;;;;5110340;28;20126;-75
2022/05/17 04:38:41;;;;;;;20.88;11.23;;;15.10;99.90;;;;;;5097848;28;20931;-75
2022/05/17 04:41:07;;;;;;;17.08;10.02;;;15.10;99.90;;;;;;5089581;28;20044;-76
2022/05/17 04:43:33;;;;;;;22.58;11.02;;;15.20;99.90;;;;;;5085887;28;20066;-75
2022/05/17 04:45:58;;;;;;;18.88;10.10;;;15.20;99.90;;;;;;5102149;28;20417;-75
2022/05/17 04:48:27;;;;;;;19.73;10.18;;;15.30;99.90;;;;;;5108715;28;20043;-75
2022/05/17 04:50:52;;;;;;;19.90;10.05;;;15.30;99.90;;;;;;5108153;28;20551;-75
2022/05/17 04:53:18;;;;;;;22.05;9.98;;;15.30;99.90;;;;;;5096557;28;20056;-75
2022/05/17 04:55:44;;;;;;;19.92;9.82;;;15.40;99.90;;;;;;5108598;28;20522;-75
2022/05/17 04:58:10;;;;;;;15.65;9.63;;;15.40;99.90;;;;;;5110172;28;20131;-75
2022/05/17 05:00:36;;;;;;;18.15;9.50;;;15.50;99.90;;;;;;5108570;28;20126;-75
2022/05/17 05:03:02;;;;;;;15.73;9.32;;;15.50;99.90;;;;;;5102141;28;20048;-75
2022/05/17 05:05:28;;;;;;;17.83;9.55;;;15.50;99.90;;;;;;5104883;28;20876;-73
2022/05/17 05:07:54;;;;;;;18.20;9.68;;;15.60;99.90;;;;;;5109147;27;20048;-76
2022/05/17 05:10:20;;;;;;;19.25;9.50;;;15.60;99.90;;;;;;5109672;28;20079;-76
2022/05/17 05:12:46;;;;;;;17.10;9.05;;;15.70;99.90;;;;;;5095660;28;20027;-76
2022/05/17 05:15:13;;;;;;;16.83;8.20;;;15.70;99.90;;;;;;5092540;28;20060;-76
2022/05/17 05:17:39;;;;;;;18.23;8.65;;;15.70;99.90;;;;;;5101525;28;20047;-76
2022/05/17 05:20:08;;;;;;;16.20;8.50;;;15.80;99.90;;;;;;5106609;28;20074;-76
2022/05/17 05:22:34;;;;;;;17.00;7.80;;;15.90;99.90;;;;;;5103173;28;20032;-76
2022/05/17 05:25:00;;;;;;;14.63;7.85;;;16.00;99.90;;;;;;5095785;28;20399;-76
2022/05/17 05:27:34;;;;;;;17.63;8.07;;;16.00;99.90;;;;;;5085145;28;20620;-75
2022/05/17 05:30:01;;;;;;;13.73;7.05;;;16.10;99.90;;;;;;5096892;28;20051;-76
2022/05/17 05:32:27;;;;;;;17.42;8.13;;;16.10;99.90;;;;;;5087922;28;20044;-75
2022/05/17 05:34:52;;;;;;;18.55;8.13;;;16.20;99.90;;;;;;5096338;28;20129;-75
2022/05/17 05:37:18;;;;;;;17.30;8.32;;;16.20;99.90;;;;;;5094620;28;20048;-75
2022/05/17 05:39:43;;;;;;;16.38;8.20;;;16.20;99.90;;;;;;5101147;28;20047;-75
2022/05/17 05:42:09;;;;;;;15.45;7.57;;;16.20;99.90;;;;;;5089556;28;20820;-75
2022/05/17 05:44:35;;;;;;;17.15;8.18;;;16.20;99.90;;;;;;5100689;28;20040;-75
2022/05/17 05:47:01;;;;;;;16.77;7.57;;;16.20;99.90;;;;;;5084834;28;20080;-75
2022/05/17 05:49:29;;;;;;;15.02;7.63;;;16.30;99.90;;;;;;5099928;28;20537;-75
2022/05/17 05:51:55;;;;;;;17.42;8.88;;;16.30;99.90;;;;;;5108494;28;20035;-75
2022/05/17 05:54:21;;;;;;;17.80;7.82;;;16.30;99.90;;;;;;5095774;28;20495;-75
2022/05/17 05:56:47;;;;;;;15.95;8.48;;;16.40;99.90;;;;;;5093010;28;20537;-75
2022/05/17 05:59:12;;;;;;;17.25;8.10;;;16.40;99.90;;;;;;5087960;28;20044;-75
2022/05/17 06:01:39;;;;;;;16.05;8.35;;;16.50;99.90;;;;;;5099184;28;20071;-75
2022/05/17 06:04:05;;;;;;;17.88;8.98;;;16.60;99.90;;;;;;5110974;28;20054;-75
2022/05/17 06:06:32;;;;;;;14.68;7.72;;;16.70;99.90;;;;;;5109702;28;20093;-75
2022/05/17 06:08:58;;;;;;;14.27;7.68;;;16.80;99.90;;;;;;5105259;28;20043;-75
2022/05/17 06:11:24;;;;;;;14.25;8.05;;;16.90;99.90;;;;;;5099609;28;20589;-75
2022/05/17 06:13:50;;;;;;;15.23;7.97;;;17.00;99.90;;;;;;5098694;28;20479;-75
2022/05/17 06:16:16;;;;;;;15.75;7.85;;;17.00;99.90;;;;;;5112371;27;20474;-75
2022/05/17 06:18:42;;;;;;;15.30;8.23;;;17.10;99.90;;;;;;5111514;28;20035;-75
2022/05/17 06:21:08;;;;;;;20.63;8.63;;;17.10;99.90;;;;;;5112116;27;20142;-75
2022/05/17 06:23:35;;;;;;;15.73;7.80;;;17.10;99.90;;;;;;5093824;28;20079;-75
2022/05/17 06:26:01;;;;;;;16.08;7.85;;;17.10;99.90;;;;;;5112117;28;20047;-75
2022/05/17 06:28:26;;;;;;;20.95;8.30;;;17.00;99.90;;;;;;5092212;28;20040;-75
2022/05/17 06:30:52;;;;;;;16.92;7.70;;;17.00;99.90;;;;;;5092329;28;20532;-75
2022/05/17 06:33:18;;;;;;;13.00;7.93;;;17.00;99.90;;;;;;5087741;28;20449;-75
2022/05/17 06:35:45;;;;;;;16.58;8.55;;;17.00;99.90;;;;;;5088093;28;20458;-75
2022/05/17 06:38:11;;;;;;;19.20;8.35;;;17.00;99.90;;;;;;5094092;28;20411;-75
2022/05/17 06:40:38;;;;;;;14.48;7.93;;;17.00;99.90;;;;;;5102248;27;20127;-75
2022/05/17 06:43:04;;;;;;;15.82;7.82;;;17.10;99.90;;;;;;5110944;28;20047;-75
2022/05/17 06:45:30;;;;;;;15.90;9.17;;;17.20;99.90;;;;;;5112419;28;20054;-76
2022/05/17 06:47:56;;;;;;;16.80;8.55;;;17.20;99.90;;;;;;5111420;28;20282;-76
2022/05/17 06:50:22;;;;;;;15.32;8.35;;;17.30;99.90;;;;;;5098766;28;20531;-72
2022/05/17 06:52:48;;;;;;;19.38;9.05;;;17.40;99.90;;;;;;5091009;28;20056;-73
2022/05/17 06:55:14;;;;;;;20.05;9.18;;;17.50;99.90;;;;;;5087321;28;20550;-76
2022/05/17 06:57:43;;;;;;;15.27;8.38;;;17.50;99.90;;;;;;5110718;28;20391;-75
2022/05/17 07:00:12;;;;;;;16.83;9.20;;;17.60;99.90;;;;;;5094825;28;20106;-75
2022/05/17 07:02:39;;;;;;;17.80;8.63;;;17.70;99.90;;;;;;5107097;28;20742;-76
2022/05/17 07:05:09;;;;;;;17.23;9.07;;;17.70;99.90;;;;;;5090404;28;20054;-76
2022/05/17 07:07:35;;;;;;;14.90;8.32;;;17.80;99.90;;;;;;5101815;28;20797;-74
2022/05/17 07:15:29;;;;;;;15.48;8.77;;;17.90;99.90;;;;;;5104446;28;20392;-72
2022/05/17 07:17:59;;;;;;;16.60;8.70;;;17.90;99.90;;;;;;5111009;28;20479;-72
2022/05/17 07:20:25;;;;;;;18.55;8.50;;;18.00;99.90;;;;;;5106954;28;20097;-73
2022/05/17 07:22:50;;;;;;;15.95;8.57;;;18.10;99.90;;;;;;5092866;28;20395;-73
2022/05/17 07:25:16;;;;;;;17.50;8.25;;;18.10;99.90;;;;;;5091335;28;20046;-74
2022/05/17 07:27:41;;;;;;;15.32;8.00;;;18.10;99.90;;;;;;5104206;28;20126;-75
2022/05/17 07:30:07;;;;;;;19.33;8.43;;;18.20;99.90;;;;;;5095219;28;20043;-71
2022/05/17 07:32:33;;;;;;;16.65;8.43;;;18.20;99.90;;;;;;5091702;28;20182;-74
2022/05/17 07:34:58;;;;;;;15.07;8.02;;;18.20;99.90;;;;;;5087797;28;20115;-75
2022/05/17 07:37:24;;;;;;;16.75;8.30;;;18.30;99.90;;;;;;5097309;28;20044;-75
2022/05/17 07:39:50;;;;;;;17.88;8.82;;;18.40;99.90;;;;;;5091541;28;20050;-74
2022/05/17 07:42:15;;;;;;;16.45;8.70;;;18.40;99.90;;;;;;5099734;28;20427;-73
2022/05/17 07:44:41;;;;;;;19.08;8.95;;;18.50;99.90;;;;;;5097855;28;20155;-73
2022/05/17 07:47:07;;;;;;;14.65;7.68;;;18.50;99.90;;;;;;5095291;28;20039;-73
2022/05/17 07:49:34;;;;;;;15.02;7.68;;;18.50;99.90;;;;;;5097308;28;20032;-73
2022/05/17 07:52:00;;;;;;;15.48;8.93;;;18.60;99.90;;;;;;5105061;28;20048;-74
2022/05/17 07:54:26;;;;;;;18.02;9.10;;;18.70;99.90;;;;;;5089534;28;20063;-74
2022/05/17 07:56:51;;;;;;;18.05;9.00;;;18.80;99.90;;;;;;5079925;28;20048;-73
2022/05/17 07:59:20;;;;;;;17.17;8.38;;;18.80;99.90;;;;;;5089738;28;20047;-73
2022/05/17 08:01:46;;;;;;;16.70;8.88;;;18.90;99.90;;;;;;5096123;28;20445;-74
2022/05/17 08:04:11;;;;;;;13.05;7.38;;;19.00;99.90;;;;;;5094101;28;20054;-75
2022/05/17 08:06:38;;;;;;;16.17;8.07;;;19.00;99.90;;;;;;5106050;28;20124;-75
2022/05/17 08:09:05;;;;;;;17.92;8.85;;;19.10;99.90;;;;;;5089861;28;20044;-76
2022/05/17 08:11:31;;;;;;;16.60;8.35;;;19.10;99.90;;;;;;5109082;28;20511;-76
2022/05/17 08:13:57;;;;;;;19.08;7.80;;;19.20;99.90;;;;;;5096779;28;20071;-76
2022/05/17 08:16:25;;;;;;;18.73;8.98;;;19.30;99.90;;;;;;5096276;28;20039;-76
2022/05/17 08:18:50;;;;;;;15.82;8.48;;;19.40;99.90;;;;;;5109893;28;20095;-76
2022/05/17 08:21:19;;;;;;;16.08;8.57;;;19.40;99.90;;;;;;5091101;28;20051;-76
2022/05/17 08:23:44;;;;;;;15.65;8.10;;;19.40;99.90;;;;;;5096331;28;20451;-77
2022/05/17 08:28:56;;;;;;;14.10;8.13;;;19.60;99.90;;;;;;5111135;28;20047;-79
2022/05/17 08:31:22;;;;;;;15.57;8.10;;;19.70;99.90;;;;;;5098415;28;20044;-78
2022/05/17 08:33:49;;;;;;;16.25;8.23;;;19.70;99.90;;;;;;5099106;28;20052;-77
2022/05/17 08:36:19;;;;;;;15.65;7.95;;;19.80;99.90;;;;;;5094055;28;20127;-76
2022/05/17 08:38:48;;;;;;;14.65;7.68;;;19.90;99.90;;;;;;5105395;28;20050;-75
2022/05/17 08:41:24;;;;;;;15.02;7.10;;;19.90;99.90;;;;;;5108529;28;20048;-77
2022/05/17 08:44:14;;;;;;;15.30;7.90;;;20.00;99.90;;;;;;5107554;28;20047;-76
2022/05/17 08:47:01;;;;;;;12.88;6.78;;;20.00;99.90;;;;;;5097531;28;20044;-75
2022/05/17 08:49:32;;;;;;;14.00;6.10;;;20.20;99.90;;;;;;5080307;28;20619;-79
2022/05/17 08:52:05;;;;;;;11.10;6.47;;;20.20;99.90;;;;;;5090189;28;20567;-76
2022/05/17 08:54:37;;;;;;;14.73;6.53;;;20.30;99.90;;;;;;5082490;28;20079;-78
2022/05/17 08:57:20;;;;;;;11.02;5.45;;;20.40;99.90;;;;;;5104033;28;20044;-77
2022/05/17 08:59:47;;;;;;;13.95;6.30;;;20.40;99.90;;;;;;5106972;28;20047;-75
2022/05/17 09:02:18;;;;;;;11.30;5.20;;;20.50;99.90;;;;;;5103636;28;20434;-79
2022/05/17 09:04:52;;;;;;;12.05;4.90;;;20.60;99.90;;;;;;5100050;28;20169;-75
2022/05/17 09:07:25;;;;;;;15.55;5.00;;;20.60;99.90;;;;;;5084218;28;20055;-76
2022/05/17 09:10:18;;;;;;;12.75;4.70;;;20.60;99.90;;;;;;5091472;28;20031;-76
2022/05/17 09:12:52;;;;;;;12.13;5.93;;;20.70;99.90;;;;;;5094748;28;20475;-77
2022/05/17 09:15:20;;;;;;;17.45;5.97;;;20.80;99.90;;;;;;5096305;28;20032;-82
2022/05/17 09:17:47;;;;;;;11.15;4.75;;;20.90;99.90;;;;;;5090037;28;20549;-85
2022/05/17 09:20:18;;;;;;;14.13;5.10;;;21.00;99.90;;;;;;5087155;28;20040;-82
2022/05/17 09:22:44;;;;;;;11.13;5.00;;;21.10;99.90;;;;;;5082616;28;20109;-77
2022/05/17 09:25:25;;;;;;;13.65;4.82;;;21.20;99.90;;;;;;5085544;28;20047;-76
2022/05/17 09:27:53;;;;;;;14.57;4.43;;;21.20;99.90;;;;;;5084867;28;20494;-78
2022/05/17 09:30:21;;;;;;;12.57;4.13;;;21.20;99.90;;;;;;5072978;28;20570;-77
2022/05/17 09:32:48;;;;;;;13.32;4.78;;;21.30;99.90;;;;;;5083040;28;20043;-75
2022/05/17 09:35:20;;;;;;;9.85;3.97;;;21.30;99.90;;;;;;5080916;28;20040;-77
2022/05/17 09:37:52;;;;;;;11.57;4.45;;;21.40;99.90;;;;;;5085812;28;20050;-80
2022/05/17 09:40:28;;;;;;;9.38;3.08;;;21.50;99.90;;;;;;5094102;28;20052;-76
2022/05/17 09:43:06;;;;;;;12.07;4.03;;;21.60;99.90;;;;;;5101085;28;20043;-76
2022/05/17 09:45:45;;;;;;;11.73;4.72;;;21.60;99.90;;;;;;5092057;28;20471;-75
2022/05/17 09:48:13;;;;;;;11.48;4.05;;;21.60;99.90;;;;;;5097104;28;20051;-75
2022/05/17 09:53:44;;;;;;;12.77;4.78;;;21.60;99.90;;;;;;5109357;28;20055;-74
2022/05/17 09:56:10;;;;;;;13.75;4.10;;;21.70;99.90;;;;;;5097167;28;20036;-75
2022/05/17 09:58:38;;;;;;;10.30;3.20;;;21.80;99.90;;;;;;5068088;28;20040;-75
2022/05/17 10:01:14;;;;;;;13.00;3.88;;;21.90;99.90;;;;;;5084696;28;20055;-75
2022/05/17 10:03:41;;;;;;;12.30;3.92;;;21.90;99.90;;;;;;5088336;28;20040;-74
2022/05/17 10:06:12;;;;;;;10.13;4.13;;;22.00;99.90;;;;;;5086575;28;20044;-74
2022/05/17 10:08:47;;;;;;;11.60;4.20;;;22.10;99.90;;;;;;5109226;28;20487;-75
2022/05/17 10:11:17;;;;;;;12.57;4.38;;;22.20;99.90;;;;;;5087665;28;20135;-76
2022/05/17 10:14:21;;;;;;;10.45;4.00;;;22.20;99.90;;;;;;5095328;28;20506;-79
2022/05/17 10:17:01;;;;;;;11.82;3.78;;;22.20;99.90;;;;;;5103539;28;20074;-76
2022/05/17 10:19:46;;;;;;;10.77;4.45;;;22.20;99.90;;;;;;5085208;28;20107;-76
2022/05/17 10:22:43;;;;;;;12.43;4.28;;;22.30;99.90;;;;;;5085894;28;21083;-76
2022/05/17 10:25:26;;;;;;;10.13;3.70;;;22.40;99.90;;;;;;5085707;28;20036;-75
2022/05/17 10:28:06;;;;;;;15.10;4.20;;;22.50;99.90;;;;;;5095814;28;20051;-74
2022/05/17 10:30:57;;;;;;;9.43;3.40;;;22.70;99.90;;;;;;5091038;28;20051;-76
2022/05/17 10:34:02;;;;;;;10.75;3.42;;;22.90;99.90;;;;;;5088301;28;20040;-75
2022/05/17 10:36:50;;;;;;;12.10;3.45;;;23.00;99.90;;;;;;5091766;28;20518;-75
2022/05/17 10:39:51;;;;;;;10.35;2.85;;;23.10;99.90;;;;;;5107339;28;20581;-77
2022/05/17 10:42:17;;;;;;;9.35;2.67;;;23.00;99.90;;;;;;5076606;28;20051;-76
2022/05/17 10:44:54;;;;;;;9.80;3.08;;;22.90;99.90;;;;;;5107697;28;20044;-78
2022/05/17 10:47:43;;;;;;;12.75;2.95;;;22.80;99.90;;;;;;5088718;28;20050;-76
2022/05/17 10:50:23;;;;;;;8.45;2.78;;;22.70;99.90;;;;;;5072541;28;20054;-75
2022/05/17 10:53:18;;;;;;;9.45;3.08;;;22.70;99.90;;;;;;5106587;28;20052;-82
2022/05/17 10:55:52;;;;;;;11.55;3.47;;;22.70;99.90;;;;;;5091113;28;20104;-76
2022/05/17 10:58:55;;;;;;;9.68;2.80;;;22.60;99.90;;;;;;5107937;28;20051;-76
2022/05/17 11:01:37;;;;;;;9.43;3.20;;;22.60;99.90;;;;;;5110953;28;20066;-76
2022/05/17 11:04:57;;;;;;;9.98;3.08;;;22.60;99.90;;;;;;5099868;28;20090;-76
2022/05/17 11:07:38;;;;;;;9.70;3.10;;;22.60;99.90;;;;;;5091117;28;20090;-76
2022/05/17 11:10:18;;;;;;;12.32;3.70;;;22.60;99.90;;;;;;5091545;28;20079;-76
2022/05/17 11:12:52;;;;;;;9.55;4.55;;;22.50;99.90;;;;;;5092456;28;20040;-76
2022/05/17 11:15:28;;;;;;;13.63;3.95;;;22.50;99.90;;;;;;5087844;28;20067;-76
2022/05/17 11:18:04;;;;;;;11.20;4.00;;;22.50;99.90;;;;;;5072165;28;20047;-76
2022/05/17 11:20:45;;;;;;;12.93;4.50;;;22.50;99.90;;;;;;5074563;28;20503;-76
2022/05/17 11:23:26;;;;;;;14.80;4.75;;;22.50;99.90;;;;;;5089841;28;20404;-76
2022/05/17 11:26:04;;;;;;;11.77;5.13;;;22.60;99.90;;;;;;5088821;28;20058;-76
2022/05/17 11:28:58;;;;;;;12.15;6.03;;;22.60;99.90;;;;;;5098324;28;20085;-76
2022/05/17 11:31:29;;;;;;;14.63;7.57;;;22.50;99.90;;;;;;5092802;28;20056;-75
2022/05/17 11:34:30;;;;;;;16.25;8.93;;;22.50;99.90;;;;;;5098425;28;20055;-76
2022/05/17 11:37:10;;;;;;;15.10;7.38;;;22.50;99.90;;;;;;5080678;28;20039;-77
2022/05/17 11:39:41;;;;;;;16.15;7.95;;;22.50;99.90;;;;;;5094497;28;20052;-76
2022/05/17 11:42:09;;;;;;;17.70;8.48;;;22.40;99.90;;;;;;5100292;28;20077;-74
2022/05/17 11:44:45;;;;;;;14.30;7.97;;;22.40;99.90;;;;;;5089854;28;20094;-76
2022/05/17 11:47:26;;;;;;;15.40;8.77;;;22.40;99.90;;;;;;5087481;28;20547;-76
2022/05/17 11:49:52;;;;;;;14.35;8.20;;;22.40;99.90;;;;;;5093538;28;20039;-73
2022/05/17 11:52:26;;;;;;;17.15;7.95;;;22.30;99.90;;;;;;5100285;28;20063;-74
2022/05/17 11:54:53;;;;;;;18.58;8.80;;;22.30;99.90;;;;;;5094363;28;20059;-73
2022/05/17 11:57:24;;;;;;;14.13;8.05;;;22.40;99.90;;;;;;5090245;28;20160;-73
2022/05/17 12:00:04;;;;;;;13.45;7.97;;;22.40;99.90;;;;;;5106315;28;20040;-72
2022/05/17 12:02:49;;;;;;;17.65;7.97;;;22.40;99.90;;;;;;5092271;28;20399;-72
2022/05/17 12:05:38;;;;;;;17.75;9.30;;;22.40;99.90;;;;;;5072800;28;20058;-74
2022/05/17 12:08:40;;;;;;;15.73;7.82;;;22.50;99.90;;;;;;5064896;28;20036;-73
2022/05/17 12:11:14;;;;;;;14.90;8.10;;;22.40;99.90;;;;;;5024261;28;20048;-73
2022/05/17 12:13:53;;;;;;;15.05;7.65;;;22.40;99.90;;;;;;5058017;28;20557;-74
2022/05/17 12:16:29;;;;;;;14.73;8.00;;;22.50;99.90;;;;;;5088820;28;20046;-74
2022/05/17 12:19:01;;;;;;;15.80;8.47;;;22.50;99.90;;;;;;5090622;28;20048;-73
2022/05/17 12:22:09;;;;;;;15.18;7.13;;;22.40;99.90;;;;;;5090834;28;20051;-74
2022/05/17 12:24:50;;;;;;;14.73;7.85;;;22.50;99.90;;;;;;5043502;28;20052;-75
2022/05/17 12:27:21;;;;;;;13.23;7.95;;;22.50;99.90;;;;;;5097964;28;20083;-76
2022/05/17 12:33:06;;;;;;;15.38;7.63;;;22.40;99.90;;;;;;5106262;28;20079;-76
2022/05/17 12:35:35;;;;;;;13.50;7.15;;;22.50;99.90;;;;;;5092894;28;20052;-76
2022/05/17 12:38:00;;;;;;;13.52;7.20;;;22.60;99.90;;;;;;5069540;28;20036;-76
2022/05/17 12:43:33;;;;;;;16.02;8.15;;;22.80;99.90;;;;;;5101362;28;20071;-74
2022/05/17 12:46:22;;;;;;;17.70;7.45;;;22.90;99.90;;;;;;5100133;28;20051;-75
2022/05/17 12:48:50;;;;;;;12.73;6.95;;;22.90;99.90;;;;;;5091020;28;20040;-73
2022/05/17 12:51:20;;;;;;;12.20;6.63;;;22.90;99.90;;;;;;5097636;28;20452;-73
2022/05/17 12:53:50;;;;;;;14.55;7.65;;;23.00;99.90;;;;;;5088058;28;20127;-73
2022/05/17 12:56:16;;;;;;;13.73;6.63;;;23.00;99.90;;;;;;5081413;28;20528;-72
2022/05/17 12:59:09;;;;;;;12.52;6.03;;;23.00;99.90;;;;;;5092197;28;20036;-73
2022/05/17 13:01:50;;;;;;;12.80;5.70;;;23.10;99.90;;;;;;5101711;28;20070;-74
2022/05/17 13:04:17;;;;;;;13.23;6.35;;;23.10;99.90;;;;;;5094162;28;20059;-75
2022/05/17 13:06:45;;;;;;;12.25;5.68;;;23.10;99.90;;;;;;5092978;28;20089;-73
2022/05/17 13:09:18;;;;;;;29.92;11.13;;;23.10;99.90;;;;;;5106760;28;20040;-73